sensor_id;sensor_type;location;lat;lon;timestamp;P1;durP1;ratioP1;P2;durP2;ratioP2
37855;SDS011;23694;43.274;26.924;2022-11-14T00:02:17;19.70;;;13.43;;
37855;SDS011;23694;43.274;26.924;2022-11-14T00:04:47;18.57;;;13.03;;
37855;SDS011;23694;43.274;26.924;2022-11-14T00:07:13;18.83;;;12.70;;
37855;SDS011;23694;43.274;26.924;2022-11-14T00:09:40;20.63;;;14.53;;
37855;SDS011;23694;43.274;26.924;2022-11-14T00:12:09;19.37;;;13.20;;
37855;SDS011;23694;43.274;26.924;2022-11-14T00:14:36;21.10;;;13.97;;
37855;SDS011;23694;43.274;26.924;2022-11-14T00:17:03;22.90;;;14.23;;
37855;SDS011;23694;43.274;26.924;2022-11-14T00:19:29;19.93;;;14.70;;
37855;SDS011;23694;43.274;26.924;2022-11-14T00:21:56;21.00;;;14.10;;
37855;SDS011;23694;43.274;26.924;2022-11-14T00:24:22;20.47;;;15.10;;
37855;SDS011;23694;43.274;26.924;2022-11-14T00:26:48;24.17;;;15.77;;
37855;SDS011;23694;43.274;26.924;2022-11-14T00:29:14;27.77;;;19.63;;
37855;SDS011;23694;43.274;26.924;2022-11-14T00:31:40;32.90;;;21.90;;
37855;SDS011;23694;43.274;26.924;2022-11-14T00:34:07;32.10;;;22.17;;
37855;SDS011;23694;43.274;26.924;2022-11-14T00:36:33;31.47;;;20.93;;
37855;SDS011;23694;43.274;26.924;2022-11-14T00:39:00;27.27;;;19.70;;
37855;SDS011;23694;43.274;26.924;2022-11-14T00:41:27;26.30;;;17.90;;
37855;SDS011;23694;43.274;26.924;2022-11-14T00:43:53;24.13;;;15.23;;
37855;SDS011;23694;43.274;26.924;2022-11-14T00:46:19;23.77;;;15.03;;
37855;SDS011;23694;43.274;26.924;2022-11-14T00:48:45;19.67;;;14.67;;
37855;SDS011;23694;43.274;26.924;2022-11-14T00:51:11;21.63;;;15.00;;
37855;SDS011;23694;43.274;26.924;2022-11-14T00:53:37;20.83;;;13.90;;
37855;SDS011;23694;43.274;26.924;2022-11-14T00:56:03;18.23;;;13.77;;
37855;SDS011;23694;43.274;26.924;2022-11-14T00:58:30;19.47;;;13.43;;
37855;SDS011;23694;43.274;26.924;2022-11-14T01:00:57;19.37;;;13.70;;
37855;SDS011;23694;43.274;26.924;2022-11-14T01:03:23;19.00;;;13.60;;
37855;SDS011;23694;43.274;26.924;2022-11-14T01:05:49;19.47;;;13.23;;
37855;SDS011;23694;43.274;26.924;2022-11-14T01:08:17;20.20;;;13.77;;
37855;SDS011;23694;43.274;26.924;2022-11-14T01:10:45;19.97;;;13.47;;
37855;SDS011;23694;43.274;26.924;2022-11-14T01:13:13;21.47;;;14.77;;
37855;SDS011;23694;43.274;26.924;2022-11-14T01:15:40;20.83;;;14.90;;
37855;SDS011;23694;43.274;26.924;2022-11-14T01:18:11;22.73;;;15.47;;
37855;SDS011;23694;43.274;26.924;2022-11-14T01:20:43;22.30;;;15.30;;
37855;SDS011;23694;43.274;26.924;2022-11-14T01:23:10;23.50;;;16.10;;
37855;SDS011;23694;43.274;26.924;2022-11-14T01:25:38;21.10;;;15.03;;
37855;SDS011;23694;43.274;26.924;2022-11-14T01:28:09;21.83;;;15.23;;
37855;SDS011;23694;43.274;26.924;2022-11-14T01:30:36;24.77;;;14.60;;
37855;SDS011;23694;43.274;26.924;2022-11-14T01:33:03;20.80;;;13.93;;
37855;SDS011;23694;43.274;26.924;2022-11-14T01:35:31;22.87;;;15.27;;
37855;SDS011;23694;43.274;26.924;2022-11-14T01:37:58;20.53;;;14.70;;
37855;SDS011;23694;43.274;26.924;2022-11-14T01:40:25;23.00;;;14.00;;
37855;SDS011;23694;43.274;26.924;2022-11-14T01:45:52;26.43;;;13.20;;
37855;SDS011;23694;43.274;26.924;2022-11-14T01:51:33;22.60;;;13.70;;
37855;SDS011;23694;43.274;26.924;2022-11-14T01:54:04;28.37;;;16.97;;
37855;SDS011;23694;43.274;26.924;2022-11-14T01:56:38;23.47;;;16.47;;
37855;SDS011;23694;43.274;26.924;2022-11-14T01:59:09;25.30;;;17.63;;
37855;SDS011;23694;43.274;26.924;2022-11-14T02:01:45;28.43;;;19.73;;
37855;SDS011;23694;43.274;26.924;2022-11-14T02:04:19;26.97;;;19.03;;
37855;SDS011;23694;43.274;26.924;2022-11-14T02:06:47;28.43;;;19.57;;
37855;SDS011;23694;43.274;26.924;2022-11-14T02:09:17;30.57;;;20.53;;
37855;SDS011;23694;43.274;26.924;2022-11-14T02:11:44;27.33;;;20.47;;
37855;SDS011;23694;43.274;26.924;2022-11-14T02:14:11;26.53;;;19.57;;
37855;SDS011;23694;43.274;26.924;2022-11-14T02:16:38;24.77;;;19.37;;
37855;SDS011;23694;43.274;26.924;2022-11-14T02:19:06;31.80;;;21.93;;
37855;SDS011;23694;43.274;26.924;2022-11-14T02:21:32;33.57;;;23.57;;
37855;SDS011;23694;43.274;26.924;2022-11-14T02:23:59;31.97;;;22.73;;
37855;SDS011;23694;43.274;26.924;2022-11-14T02:26:25;30.07;;;23.03;;
37855;SDS011;23694;43.274;26.924;2022-11-14T02:28:51;36.33;;;23.30;;
37855;SDS011;23694;43.274;26.924;2022-11-14T02:31:17;33.00;;;22.30;;
37855;SDS011;23694;43.274;26.924;2022-11-14T02:33:43;32.70;;;22.27;;
37855;SDS011;23694;43.274;26.924;2022-11-14T02:36:09;34.33;;;22.97;;
37855;SDS011;23694;43.274;26.924;2022-11-14T02:38:35;31.40;;;22.37;;
37855;SDS011;23694;43.274;26.924;2022-11-14T02:41:02;32.30;;;22.07;;
37855;SDS011;23694;43.274;26.924;2022-11-14T02:43:28;32.37;;;23.80;;
37855;SDS011;23694;43.274;26.924;2022-11-14T02:45:54;29.70;;;22.37;;
37855;SDS011;23694;43.274;26.924;2022-11-14T02:48:20;31.07;;;22.50;;
37855;SDS011;23694;43.274;26.924;2022-11-14T02:50:49;31.17;;;23.53;;
37855;SDS011;23694;43.274;26.924;2022-11-14T02:53:15;31.43;;;23.33;;
37855;SDS011;23694;43.274;26.924;2022-11-14T02:55:41;31.70;;;22.87;;
37855;SDS011;23694;43.274;26.924;2022-11-14T02:58:07;33.30;;;23.47;;
37855;SDS011;23694;43.274;26.924;2022-11-14T03:00:33;30.63;;;22.77;;
37855;SDS011;23694;43.274;26.924;2022-11-14T03:02:59;29.87;;;21.73;;
37855;SDS011;23694;43.274;26.924;2022-11-14T03:05:25;28.90;;;22.33;;
37855;SDS011;23694;43.274;26.924;2022-11-14T03:07:52;33.53;;;22.37;;
37855;SDS011;23694;43.274;26.924;2022-11-14T03:10:19;30.07;;;23.13;;
37855;SDS011;23694;43.274;26.924;2022-11-14T03:12:46;28.17;;;21.43;;
37855;SDS011;23694;43.274;26.924;2022-11-14T03:15:12;32.03;;;22.17;;
37855;SDS011;23694;43.274;26.924;2022-11-14T03:17:38;30.50;;;23.00;;
37855;SDS011;23694;43.274;26.924;2022-11-14T03:20:04;29.67;;;22.50;;
37855;SDS011;23694;43.274;26.924;2022-11-14T03:22:31;28.50;;;20.70;;
37855;SDS011;23694;43.274;26.924;2022-11-14T03:24:57;31.90;;;22.50;;
37855;SDS011;23694;43.274;26.924;2022-11-14T03:27:23;27.40;;;21.77;;
37855;SDS011;23694;43.274;26.924;2022-11-14T03:29:49;31.87;;;21.87;;
37855;SDS011;23694;43.274;26.924;2022-11-14T03:32:15;27.73;;;20.97;;
37855;SDS011;23694;43.274;26.924;2022-11-14T03:34:42;32.77;;;22.13;;
37855;SDS011;23694;43.274;26.924;2022-11-14T03:37:08;25.87;;;18.03;;
37855;SDS011;23694;43.274;26.924;2022-11-14T03:39:34;32.67;;;21.97;;
37855;SDS011;23694;43.274;26.924;2022-11-14T03:42:00;32.13;;;21.63;;
37855;SDS011;23694;43.274;26.924;2022-11-14T03:44:27;44.40;;;25.77;;
37855;SDS011;23694;43.274;26.924;2022-11-14T03:46:53;39.07;;;25.80;;
37855;SDS011;23694;43.274;26.924;2022-11-14T03:49:19;38.77;;;24.83;;
37855;SDS011;23694;43.274;26.924;2022-11-14T03:51:45;37.47;;;26.17;;
37855;SDS011;23694;43.274;26.924;2022-11-14T03:54:11;31.57;;;23.57;;
37855;SDS011;23694;43.274;26.924;2022-11-14T03:56:37;34.97;;;23.60;;
37855;SDS011;23694;43.274;26.924;2022-11-14T03:59:03;30.73;;;22.07;;
37855;SDS011;23694;43.274;26.924;2022-11-14T04:01:29;36.27;;;23.57;;
37855;SDS011;23694;43.274;26.924;2022-11-14T04:03:55;33.10;;;21.97;;
37855;SDS011;23694;43.274;26.924;2022-11-14T04:06:21;27.97;;;20.53;;
37855;SDS011;23694;43.274;26.924;2022-11-14T04:08:48;25.93;;;19.07;;
37855;SDS011;23694;43.274;26.924;2022-11-14T04:11:14;26.50;;;18.60;;
37855;SDS011;23694;43.274;26.924;2022-11-14T04:13:40;28.77;;;18.93;;
37855;SDS011;23694;43.274;26.924;2022-11-14T04:16:06;30.33;;;20.57;;
37855;SDS011;23694;43.274;26.924;2022-11-14T04:18:33;30.00;;;19.43;;
37855;SDS011;23694;43.274;26.924;2022-11-14T04:20:59;28.50;;;19.30;;
37855;SDS011;23694;43.274;26.924;2022-11-14T04:23:25;27.93;;;20.50;;
37855;SDS011;23694;43.274;26.924;2022-11-14T04:25:51;27.67;;;18.97;;
37855;SDS011;23694;43.274;26.924;2022-11-14T04:28:17;33.03;;;20.33;;
37855;SDS011;23694;43.274;26.924;2022-11-14T04:30:43;42.70;;;25.60;;
37855;SDS011;23694;43.274;26.924;2022-11-14T04:33:12;43.77;;;22.30;;
37855;SDS011;23694;43.274;26.924;2022-11-14T04:35:38;38.07;;;21.83;;
37855;SDS011;23694;43.274;26.924;2022-11-14T04:38:04;29.43;;;19.37;;
37855;SDS011;23694;43.274;26.924;2022-11-14T04:40:30;28.63;;;19.17;;
37855;SDS011;23694;43.274;26.924;2022-11-14T04:42:56;31.93;;;19.17;;
37855;SDS011;23694;43.274;26.924;2022-11-14T04:45:22;27.77;;;18.73;;
37855;SDS011;23694;43.274;26.924;2022-11-14T04:47:48;29.60;;;20.53;;
37855;SDS011;23694;43.274;26.924;2022-11-14T04:50:14;34.57;;;22.83;;
37855;SDS011;23694;43.274;26.924;2022-11-14T04:52:40;33.40;;;23.80;;
37855;SDS011;23694;43.274;26.924;2022-11-14T04:55:07;30.40;;;21.23;;
37855;SDS011;23694;43.274;26.924;2022-11-14T04:57:33;25.07;;;17.73;;
37855;SDS011;23694;43.274;26.924;2022-11-14T04:59:59;26.57;;;18.93;;
37855;SDS011;23694;43.274;26.924;2022-11-14T05:02:25;30.57;;;19.20;;
37855;SDS011;23694;43.274;26.924;2022-11-14T05:04:51;35.93;;;23.83;;
37855;SDS011;23694;43.274;26.924;2022-11-14T05:07:18;30.47;;;19.90;;
37855;SDS011;23694;43.274;26.924;2022-11-14T05:09:44;31.77;;;22.03;;
37855;SDS011;23694;43.274;26.924;2022-11-14T05:12:11;33.13;;;22.60;;
37855;SDS011;23694;43.274;26.924;2022-11-14T05:14:37;121.03;;;30.63;;
37855;SDS011;23694;43.274;26.924;2022-11-14T05:17:03;120.27;;;30.23;;
37855;SDS011;23694;43.274;26.924;2022-11-14T05:19:29;82.77;;;27.73;;
37855;SDS011;23694;43.274;26.924;2022-11-14T05:21:55;110.27;;;28.50;;
37855;SDS011;23694;43.274;26.924;2022-11-14T05:24:21;86.03;;;28.27;;
37855;SDS011;23694;43.274;26.924;2022-11-14T05:26:47;170.90;;;35.57;;
37855;SDS011;23694;43.274;26.924;2022-11-14T05:29:13;234.00;;;34.33;;
37855;SDS011;23694;43.274;26.924;2022-11-14T05:31:39;246.03;;;39.20;;
37855;SDS011;23694;43.274;26.924;2022-11-14T05:34:05;165.23;;;58.67;;
37855;SDS011;23694;43.274;26.924;2022-11-14T05:36:31;150.37;;;77.90;;
37855;SDS011;23694;43.274;26.924;2022-11-14T05:38:57;85.20;;;51.10;;
37855;SDS011;23694;43.274;26.924;2022-11-14T05:41:23;253.03;;;37.73;;
37855;SDS011;23694;43.274;26.924;2022-11-14T05:43:49;100.70;;;48.00;;
37855;SDS011;23694;43.274;26.924;2022-11-14T05:46:15;74.30;;;33.37;;
37855;SDS011;23694;43.274;26.924;2022-11-14T05:48:42;125.00;;;33.73;;
37855;SDS011;23694;43.274;26.924;2022-11-14T05:51:09;245.10;;;66.07;;
37855;SDS011;23694;43.274;26.924;2022-11-14T05:53:36;79.53;;;32.23;;
37855;SDS011;23694;43.274;26.924;2022-11-14T05:56:03;135.97;;;34.23;;
37855;SDS011;23694;43.274;26.924;2022-11-14T05:58:32;106.10;;;29.97;;
37855;SDS011;23694;43.274;26.924;2022-11-14T06:01:03;76.43;;;28.57;;
37855;SDS011;23694;43.274;26.924;2022-11-14T06:03:35;60.47;;;27.67;;
37855;SDS011;23694;43.274;26.924;2022-11-14T06:06:04;74.23;;;26.53;;
37855;SDS011;23694;43.274;26.924;2022-11-14T06:08:32;58.83;;;27.93;;
37855;SDS011;23694;43.274;26.924;2022-11-14T06:11:03;50.77;;;28.77;;
37855;SDS011;23694;43.274;26.924;2022-11-14T06:13:31;44.10;;;25.70;;
37855;SDS011;23694;43.274;26.924;2022-11-14T06:16:00;47.13;;;29.80;;
37855;SDS011;23694;43.274;26.924;2022-11-14T06:18:27;65.53;;;32.10;;
37855;SDS011;23694;43.274;26.924;2022-11-14T06:20:58;38.53;;;24.00;;
37855;SDS011;23694;43.274;26.924;2022-11-14T06:23:25;36.27;;;20.20;;
37855;SDS011;23694;43.274;26.924;2022-11-14T06:25:51;41.20;;;22.37;;
37855;SDS011;23694;43.274;26.924;2022-11-14T06:28:22;37.10;;;21.33;;
37855;SDS011;23694;43.274;26.924;2022-11-14T06:30:48;56.47;;;24.17;;
37855;SDS011;23694;43.274;26.924;2022-11-14T06:33:14;70.07;;;22.17;;
37855;SDS011;23694;43.274;26.924;2022-11-14T06:35:40;52.93;;;26.17;;
37855;SDS011;23694;43.274;26.924;2022-11-14T06:38:06;71.73;;;28.43;;
37855;SDS011;23694;43.274;26.924;2022-11-14T06:40:32;73.17;;;31.10;;
37855;SDS011;23694;43.274;26.924;2022-11-14T06:42:58;62.93;;;31.00;;
37855;SDS011;23694;43.274;26.924;2022-11-14T06:45:24;81.30;;;28.77;;
37855;SDS011;23694;43.274;26.924;2022-11-14T06:47:50;63.40;;;29.80;;
37855;SDS011;23694;43.274;26.924;2022-11-14T06:50:16;71.13;;;35.00;;
37855;SDS011;23694;43.274;26.924;2022-11-14T06:52:42;67.03;;;35.40;;
37855;SDS011;23694;43.274;26.924;2022-11-14T06:55:08;63.17;;;33.80;;
37855;SDS011;23694;43.274;26.924;2022-11-14T06:57:34;68.00;;;36.83;;
37855;SDS011;23694;43.274;26.924;2022-11-14T07:00:00;70.00;;;38.57;;
37855;SDS011;23694;43.274;26.924;2022-11-14T07:02:26;106.33;;;51.90;;
37855;SDS011;23694;43.274;26.924;2022-11-14T07:04:53;97.27;;;49.50;;
37855;SDS011;23694;43.274;26.924;2022-11-14T07:07:19;140.90;;;61.63;;
37855;SDS011;23694;43.274;26.924;2022-11-14T07:09:45;98.93;;;50.50;;
37855;SDS011;23694;43.274;26.924;2022-11-14T07:12:11;78.63;;;35.10;;
37855;SDS011;23694;43.274;26.924;2022-11-14T07:14:37;86.93;;;36.60;;
37855;SDS011;23694;43.274;26.924;2022-11-14T07:17:03;70.43;;;28.50;;
37855;SDS011;23694;43.274;26.924;2022-11-14T07:19:29;63.07;;;28.27;;
37855;SDS011;23694;43.274;26.924;2022-11-14T07:21:55;108.67;;;36.03;;
37855;SDS011;23694;43.274;26.924;2022-11-14T07:24:21;103.27;;;35.73;;
37855;SDS011;23694;43.274;26.924;2022-11-14T07:26:47;99.97;;;34.10;;
37855;SDS011;23694;43.274;26.924;2022-11-14T07:29:13;98.97;;;32.40;;
37855;SDS011;23694;43.274;26.924;2022-11-14T07:31:39;52.60;;;19.80;;
37855;SDS011;23694;43.274;26.924;2022-11-14T07:34:06;46.53;;;17.87;;
37855;SDS011;23694;43.274;26.924;2022-11-14T07:36:33;39.27;;;18.43;;
37855;SDS011;23694;43.274;26.924;2022-11-14T07:38:59;31.60;;;16.30;;
37855;SDS011;23694;43.274;26.924;2022-11-14T07:41:25;42.50;;;20.27;;
37855;SDS011;23694;43.274;26.924;2022-11-14T07:43:51;47.40;;;22.23;;
37855;SDS011;23694;43.274;26.924;2022-11-14T07:46:18;28.57;;;15.43;;
37855;SDS011;23694;43.274;26.924;2022-11-14T07:48:44;32.77;;;17.90;;
37855;SDS011;23694;43.274;26.924;2022-11-14T07:51:17;33.17;;;18.90;;
37855;SDS011;23694;43.274;26.924;2022-11-14T07:53:44;39.77;;;20.37;;
37855;SDS011;23694;43.274;26.924;2022-11-14T07:56:10;43.77;;;22.43;;
37855;SDS011;23694;43.274;26.924;2022-11-14T07:58:38;51.13;;;19.37;;
37855;SDS011;23694;43.274;26.924;2022-11-14T08:01:06;42.83;;;19.70;;
37855;SDS011;23694;43.274;26.924;2022-11-14T08:03:33;38.67;;;19.70;;
37855;SDS011;23694;43.274;26.924;2022-11-14T08:06:06;40.70;;;16.97;;
37855;SDS011;23694;43.274;26.924;2022-11-14T08:08:33;48.77;;;20.73;;
37855;SDS011;23694;43.274;26.924;2022-11-14T08:11:00;51.27;;;19.87;;
37855;SDS011;23694;43.274;26.924;2022-11-14T08:13:26;52.50;;;17.37;;
37855;SDS011;23694;43.274;26.924;2022-11-14T08:15:53;82.07;;;24.53;;
37855;SDS011;23694;43.274;26.924;2022-11-14T08:18:19;53.70;;;20.40;;
37855;SDS011;23694;43.274;26.924;2022-11-14T08:20:45;74.93;;;22.63;;
37855;SDS011;23694;43.274;26.924;2022-11-14T08:23:12;65.07;;;18.63;;
37855;SDS011;23694;43.274;26.924;2022-11-14T08:25:39;57.13;;;19.87;;
37855;SDS011;23694;43.274;26.924;2022-11-14T08:28:06;61.23;;;20.33;;
37855;SDS011;23694;43.274;26.924;2022-11-14T08:30:32;70.80;;;21.83;;
37855;SDS011;23694;43.274;26.924;2022-11-14T08:33:02;59.00;;;20.10;;
37855;SDS011;23694;43.274;26.924;2022-11-14T08:35:29;40.13;;;19.67;;
37855;SDS011;23694;43.274;26.924;2022-11-14T08:37:55;57.13;;;18.80;;
37855;SDS011;23694;43.274;26.924;2022-11-14T08:40:21;55.87;;;20.23;;
37855;SDS011;23694;43.274;26.924;2022-11-14T08:42:47;95.20;;;23.10;;
37855;SDS011;23694;43.274;26.924;2022-11-14T08:45:14;41.47;;;20.10;;
37855;SDS011;23694;43.274;26.924;2022-11-14T08:47:40;70.57;;;16.80;;
37855;SDS011;23694;43.274;26.924;2022-11-14T08:50:06;46.47;;;19.83;;
37855;SDS011;23694;43.274;26.924;2022-11-14T08:52:32;59.53;;;20.40;;
37855;SDS011;23694;43.274;26.924;2022-11-14T08:54:58;50.03;;;21.07;;
37855;SDS011;23694;43.274;26.924;2022-11-14T08:57:24;59.90;;;22.77;;
37855;SDS011;23694;43.274;26.924;2022-11-14T08:59:50;92.87;;;28.20;;
37855;SDS011;23694;43.274;26.924;2022-11-14T09:02:16;66.13;;;29.67;;
37855;SDS011;23694;43.274;26.924;2022-11-14T09:04:43;236.97;;;96.30;;
37855;SDS011;23694;43.274;26.924;2022-11-14T09:07:09;59.00;;;31.40;;
37855;SDS011;23694;43.274;26.924;2022-11-14T09:09:36;70.47;;;33.83;;
37855;SDS011;23694;43.274;26.924;2022-11-14T09:12:02;126.30;;;36.83;;
37855;SDS011;23694;43.274;26.924;2022-11-14T09:14:28;57.93;;;26.90;;
37855;SDS011;23694;43.274;26.924;2022-11-14T09:16:55;54.27;;;22.63;;
37855;SDS011;23694;43.274;26.924;2022-11-14T09:19:21;59.03;;;22.40;;
37855;SDS011;23694;43.274;26.924;2022-11-14T09:21:47;53.77;;;21.70;;
37855;SDS011;23694;43.274;26.924;2022-11-14T09:24:13;43.17;;;23.40;;
37855;SDS011;23694;43.274;26.924;2022-11-14T09:26:39;109.43;;;23.07;;
37855;SDS011;23694;43.274;26.924;2022-11-14T09:29:05;42.27;;;22.97;;
37855;SDS011;23694;43.274;26.924;2022-11-14T09:31:33;41.57;;;23.17;;
37855;SDS011;23694;43.274;26.924;2022-11-14T09:33:59;38.40;;;21.30;;
37855;SDS011;23694;43.274;26.924;2022-11-14T09:36:25;39.67;;;21.50;;
37855;SDS011;23694;43.274;26.924;2022-11-14T09:38:51;36.33;;;21.30;;
37855;SDS011;23694;43.274;26.924;2022-11-14T09:46:38;42.27;;;22.80;;
37855;SDS011;23694;43.274;26.924;2022-11-14T09:49:10;40.53;;;23.38;;
37855;SDS011;23694;43.274;26.924;2022-11-14T09:52:19;41.37;;;23.07;;
37855;SDS011;23694;43.274;26.924;2022-11-14T09:54:54;44.97;;;23.93;;
37855;SDS011;23694;43.274;26.924;2022-11-14T09:57:23;40.33;;;22.57;;
37855;SDS011;23694;43.274;26.924;2022-11-14T09:59:50;42.47;;;25.13;;
37855;SDS011;23694;43.274;26.924;2022-11-14T10:02:24;42.50;;;23.73;;
37855;SDS011;23694;43.274;26.924;2022-11-14T10:05:04;50.27;;;26.53;;
37855;SDS011;23694;43.274;26.924;2022-11-14T10:07:40;45.43;;;24.53;;
37855;SDS011;23694;43.274;26.924;2022-11-14T10:10:36;48.33;;;25.97;;
37855;SDS011;23694;43.274;26.924;2022-11-14T10:18:37;57.50;;;27.73;;
37855;SDS011;23694;43.274;26.924;2022-11-14T10:26:41;52.90;;;27.13;;
37855;SDS011;23694;43.274;26.924;2022-11-14T10:29:47;50.90;;;28.03;;
37855;SDS011;23694;43.274;26.924;2022-11-14T10:32:49;88.47;;;44.30;;
37855;SDS011;23694;43.274;26.924;2022-11-14T10:40:44;63.50;;;37.77;;
37855;SDS011;23694;43.274;26.924;2022-11-14T10:43:25;64.63;;;35.70;;
37855;SDS011;23694;43.274;26.924;2022-11-14T10:46:40;50.60;;;28.87;;
37855;SDS011;23694;43.274;26.924;2022-11-14T10:48:46;88.13;;;46.70;;
37855;SDS011;23694;43.274;26.924;2022-11-14T10:51:20;55.80;;;29.60;;
37855;SDS011;23694;43.274;26.924;2022-11-14T10:53:54;73.73;;;39.93;;
37855;SDS011;23694;43.274;26.924;2022-11-14T10:56:53;59.70;;;32.53;;
37855;SDS011;23694;43.274;26.924;2022-11-14T10:59:20;107.77;;;68.37;;
37855;SDS011;23694;43.274;26.924;2022-11-14T11:04:19;93.47;;;54.65;;
37855;SDS011;23694;43.274;26.924;2022-11-14T11:06:49;62.40;;;33.17;;
37855;SDS011;23694;43.274;26.924;2022-11-14T11:09:19;62.60;;;32.03;;
37855;SDS011;23694;43.274;26.924;2022-11-14T11:12:06;53.13;;;31.70;;
37855;SDS011;23694;43.274;26.924;2022-11-14T11:14:33;69.53;;;39.80;;
37855;SDS011;23694;43.274;26.924;2022-11-14T11:17:07;62.77;;;35.80;;
37855;SDS011;23694;43.274;26.924;2022-11-14T11:19:40;59.10;;;33.23;;
37855;SDS011;23694;43.274;26.924;2022-11-14T11:22:23;70.20;;;38.10;;
37855;SDS011;23694;43.274;26.924;2022-11-14T11:25:21;65.40;;;35.70;;
37855;SDS011;23694;43.274;26.924;2022-11-14T11:30:58;65.53;;;36.03;;
37855;SDS011;23694;43.274;26.924;2022-11-14T11:33:33;58.33;;;31.90;;
37855;SDS011;23694;43.274;26.924;2022-11-14T11:38:30;62.30;;;33.50;;
37855;SDS011;23694;43.274;26.924;2022-11-14T11:40:58;61.43;;;32.07;;
37855;SDS011;23694;43.274;26.924;2022-11-14T11:43:43;55.07;;;30.93;;
37855;SDS011;23694;43.274;26.924;2022-11-14T11:46:16;70.30;;;35.17;;
37855;SDS011;23694;43.274;26.924;2022-11-14T11:51:54;63.60;;;34.43;;
37855;SDS011;23694;43.274;26.924;2022-11-14T11:54:27;64.37;;;33.83;;
37855;SDS011;23694;43.274;26.924;2022-11-14T11:57:01;55.53;;;33.50;;
37855;SDS011;23694;43.274;26.924;2022-11-14T12:02:53;67.10;;;35.03;;
37855;SDS011;23694;43.274;26.924;2022-11-14T12:08:04;64.63;;;37.13;;
37855;SDS011;23694;43.274;26.924;2022-11-14T12:10:36;66.18;;;37.38;;
37855;SDS011;23694;43.274;26.924;2022-11-14T12:13:09;75.17;;;44.23;;
37855;SDS011;23694;43.274;26.924;2022-11-14T12:15:57;76.13;;;41.27;;
37855;SDS011;23694;43.274;26.924;2022-11-14T12:24:24;64.97;;;34.90;;
37855;SDS011;23694;43.274;26.924;2022-11-14T12:32:36;52.37;;;28.67;;
37855;SDS011;23694;43.274;26.924;2022-11-14T12:35:06;50.33;;;26.43;;
37855;SDS011;23694;43.274;26.924;2022-11-14T12:37:45;51.53;;;28.00;;
37855;SDS011;23694;43.274;26.924;2022-11-14T12:42:49;52.97;;;27.00;;
37855;SDS011;23694;43.274;26.924;2022-11-14T12:45:54;53.57;;;26.47;;
37855;SDS011;23694;43.274;26.924;2022-11-14T12:48:19;56.33;;;29.47;;
37855;SDS011;23694;43.274;26.924;2022-11-14T12:50:52;60.83;;;30.67;;
37855;SDS011;23694;43.274;26.924;2022-11-14T12:56:10;55.73;;;29.67;;
37855;SDS011;23694;43.274;26.924;2022-11-14T13:09:58;59.97;;;34.43;;
37855;SDS011;23694;43.274;26.924;2022-11-14T13:12:35;55.20;;;29.33;;
37855;SDS011;23694;43.274;26.924;2022-11-14T13:15:24;50.03;;;26.57;;
37855;SDS011;23694;43.274;26.924;2022-11-14T13:18:25;54.22;;;29.23;;
37855;SDS011;23694;43.274;26.924;2022-11-14T13:21:30;55.90;;;27.80;;
37855;SDS011;23694;43.274;26.924;2022-11-14T13:24:15;50.90;;;28.98;;
37855;SDS011;23694;43.274;26.924;2022-11-14T13:26:43;51.80;;;28.27;;
37855;SDS011;23694;43.274;26.924;2022-11-14T13:32:11;61.53;;;29.47;;
37855;SDS011;23694;43.274;26.924;2022-11-14T13:37:07;55.33;;;29.47;;
37855;SDS011;23694;43.274;26.924;2022-11-14T13:50:29;57.97;;;30.07;;
37855;SDS011;23694;43.274;26.924;2022-11-14T13:52:57;55.40;;;28.47;;
37855;SDS011;23694;43.274;26.924;2022-11-14T14:16:58;59.07;;;31.07;;
37855;SDS011;23694;43.274;26.924;2022-11-14T14:19:38;60.20;;;30.87;;
37855;SDS011;23694;43.274;26.924;2022-11-14T14:28:06;59.37;;;32.10;;
37855;SDS011;23694;43.274;26.924;2022-11-14T14:30:40;70.27;;;35.63;;
37855;SDS011;23694;43.274;26.924;2022-11-14T14:33:43;66.37;;;33.63;;
37855;SDS011;23694;43.274;26.924;2022-11-14T14:36:18;62.33;;;33.95;;
37855;SDS011;23694;43.274;26.924;2022-11-14T14:38:44;64.47;;;33.33;;
37855;SDS011;23694;43.274;26.924;2022-11-14T14:41:11;64.13;;;34.10;;
37855;SDS011;23694;43.274;26.924;2022-11-14T14:43:41;63.07;;;32.90;;
37855;SDS011;23694;43.274;26.924;2022-11-14T14:46:16;64.43;;;33.40;;
37855;SDS011;23694;43.274;26.924;2022-11-14T14:48:51;69.70;;;33.03;;
37855;SDS011;23694;43.274;26.924;2022-11-14T14:51:27;65.27;;;33.70;;
37855;SDS011;23694;43.274;26.924;2022-11-14T14:53:55;71.00;;;36.03;;
37855;SDS011;23694;43.274;26.924;2022-11-14T14:56:22;68.23;;;38.23;;
37855;SDS011;23694;43.274;26.924;2022-11-14T14:58:49;70.10;;;38.30;;
37855;SDS011;23694;43.274;26.924;2022-11-14T15:01:16;65.77;;;34.07;;
37855;SDS011;23694;43.274;26.924;2022-11-14T15:03:48;74.57;;;37.47;;
37855;SDS011;23694;43.274;26.924;2022-11-14T15:06:34;60.50;;;31.17;;
37855;SDS011;23694;43.274;26.924;2022-11-14T15:11:39;63.77;;;34.07;;
37855;SDS011;23694;43.274;26.924;2022-11-14T15:17:03;65.80;;;36.40;;
37855;SDS011;23694;43.274;26.924;2022-11-14T15:19:39;73.27;;;36.37;;
37855;SDS011;23694;43.274;26.924;2022-11-14T15:24:40;70.53;;;36.17;;
37855;SDS011;23694;43.274;26.924;2022-11-14T15:27:10;64.60;;;34.53;;
37855;SDS011;23694;43.274;26.924;2022-11-14T15:29:49;64.20;;;32.67;;
37855;SDS011;23694;43.274;26.924;2022-11-14T15:32:18;128.93;;;60.73;;
37855;SDS011;23694;43.274;26.924;2022-11-14T15:37:32;101.80;;;50.23;;
37855;SDS011;23694;43.274;26.924;2022-11-14T15:40:15;71.67;;;38.90;;
37855;SDS011;23694;43.274;26.924;2022-11-14T15:42:47;63.33;;;34.00;;
37855;SDS011;23694;43.274;26.924;2022-11-14T15:45:23;66.20;;;35.33;;
37855;SDS011;23694;43.274;26.924;2022-11-14T15:48:00;62.57;;;33.40;;
37855;SDS011;23694;43.274;26.924;2022-11-14T15:50:30;71.80;;;35.83;;
37855;SDS011;23694;43.274;26.924;2022-11-14T15:52:59;63.07;;;33.67;;
37855;SDS011;23694;43.274;26.924;2022-11-14T15:55:27;63.50;;;31.27;;
37855;SDS011;23694;43.274;26.924;2022-11-14T15:57:53;68.90;;;35.17;;
37855;SDS011;23694;43.274;26.924;2022-11-14T16:00:19;63.30;;;33.00;;
37855;SDS011;23694;43.274;26.924;2022-11-14T16:02:50;60.33;;;32.50;;
37855;SDS011;23694;43.274;26.924;2022-11-14T16:05:20;69.37;;;36.00;;
37855;SDS011;23694;43.274;26.924;2022-11-14T16:07:50;73.32;;;37.40;;
37855;SDS011;23694;43.274;26.924;2022-11-14T16:10:18;66.70;;;35.37;;
37855;SDS011;23694;43.274;26.924;2022-11-14T16:12:46;64.47;;;35.20;;
37855;SDS011;23694;43.274;26.924;2022-11-14T16:15:12;74.27;;;38.43;;
37855;SDS011;23694;43.274;26.924;2022-11-14T16:17:40;67.10;;;36.63;;
37855;SDS011;23694;43.274;26.924;2022-11-14T16:20:13;68.67;;;36.43;;
37855;SDS011;23694;43.274;26.924;2022-11-14T16:22:45;64.87;;;35.10;;
37855;SDS011;23694;43.274;26.924;2022-11-14T16:25:22;69.50;;;36.63;;
37855;SDS011;23694;43.274;26.924;2022-11-14T16:27:50;67.63;;;36.43;;
37855;SDS011;23694;43.274;26.924;2022-11-14T16:30:17;72.07;;;37.80;;